Panevezys, Lithuania
Current Conditions -  °F | °C
As of 7:50 AM on Wednesday 22 Oct 2014 (Local Time) from EYSA Reporting Station
Drizzle Drizzle  
Wind Chill: 23°   Ceiling: 400
Heat Index: 32°   Visibility: 4mi
Dew Point: 32°   Wind: 13mph
Humidity: 100%   Direction: 90°E
Pressure: 29.83"   Gusts: NA
Location:  55.74°N, 24.37°E
Report Text: EYSA 220450Z 09011KT 7000 -DZ OVC004 00/00 Q1010
Loading
Personal Weather Stations






























Interactive Weather Map
Tropical Storm Tracking
New forecast layout! Learn more

10-Day Weather Forecast

Advertisements
Track Severe Weather on mobile